createdAt,value
2023-05-18T00:02:17.448Z,99890.28
2023-05-18T00:04:55.402Z,99889.47
2023-05-18T00:07:26.366Z,99891.34
2023-05-18T00:09:54.934Z,99893.19
2023-05-18T00:12:27.208Z,99899.66
2023-05-18T00:15:00.651Z,99896.97
2023-05-18T00:17:32.089Z,99895.31
2023-05-18T00:20:12.252Z,99906.13
2023-05-18T00:22:44.836Z,99904.47
2023-05-18T00:25:15.949Z,99900.13
2023-05-18T00:27:56.567Z,99911.75
2023-05-18T00:30:27.958Z,99906.56
2023-05-18T00:33:02.256Z,99913.03
2023-05-18T00:35:35.576Z,99922.19
2023-05-18T00:38:05.207Z,99924.03
2023-05-18T00:40:33.182Z,99925.09
2023-05-18T00:43:02.545Z,99924.28
2023-05-18T00:45:31.016Z,99928.03
2023-05-18T00:47:59.770Z,99926.38
2023-05-18T00:50:27.950Z,99928.25
2023-05-18T00:52:56.154Z,99928.25
2023-05-18T00:55:24.181Z,99934.47
2023-05-18T00:57:52.179Z,99935.53
2023-05-18T01:00:22.882Z,99930.34
2023-05-18T01:02:51.354Z,99937.44
2023-05-18T01:05:20.221Z,99934.94
2023-05-18T01:07:48.869Z,99936.56
2023-05-18T01:10:18.737Z,99942.84
2023-05-18T01:12:49.797Z,99942.84
2023-05-18T01:15:19.334Z,99938.25
2023-05-18T01:18:04.982Z,99941.97
2023-05-18T01:20:38.543Z,99940.34
2023-05-18T01:23:41.711Z,99941.97
2023-05-18T01:26:24.936Z,99948.44
2023-05-18T01:28:53.084Z,99948.44
2023-05-18T01:31:22.575Z,99944.94
2023-05-18T01:33:50.626Z,99954.91
2023-05-18T01:36:18.677Z,99952.41
2023-05-18T01:38:46.605Z,99953.25
2023-05-18T01:41:18.141Z,99954.31
2023-05-18T01:43:51.429Z,99944.53
2023-05-18T01:46:23.959Z,99959.09
2023-05-18T01:48:55.607Z,99954.75
2023-05-18T01:51:23.705Z,99950.38
2023-05-18T01:53:54.262Z,99958.50
2023-05-18T01:56:22.419Z,99957.66
2023-05-18T01:58:53.209Z,99955.19
2023-05-18T02:01:23.024Z,99957.06
2023-05-18T02:03:52.062Z,99962.47
2023-05-18T02:06:20.181Z,99969.75
2023-05-18T02:08:48.087Z,99964.59
2023-05-18T02:11:16.118Z,99972.91
2023-05-18T02:13:44.098Z,99972.91
2023-05-18T02:16:13.895Z,99977.25
2023-05-18T02:18:41.927Z,99971.25
2023-05-18T02:21:10.620Z,99967.72
2023-05-18T02:23:38.742Z,99976.66
2023-05-18T02:26:06.814Z,99975.00
2023-05-18T02:28:34.877Z,99980.41
2023-05-18T02:31:07.374Z,99983.09
2023-05-18T02:33:40.207Z,99987.88
2023-05-18T02:36:10.179Z,99987.88
2023-05-18T02:38:39.572Z,99992.25
2023-05-18T02:41:08.125Z,99987.06
2023-05-18T02:43:36.157Z,99991.66
2023-05-18T02:46:04.383Z,99990.00
2023-05-18T02:48:32.523Z,99997.03
2023-05-18T02:51:02.002Z,99995.41
2023-05-18T02:53:30.047Z,99996.44
2023-05-18T02:55:58.256Z,99992.09
2023-05-18T02:58:26.926Z,99999.13
2023-05-18T03:00:56.255Z,100002.91
2023-05-18T03:03:25.871Z,100003.09
2023-05-18T03:05:55.149Z,100003.94
2023-05-18T03:08:27.146Z,100010.38
2023-05-18T03:10:56.052Z,100009.56
2023-05-18T03:13:24.014Z,100009.56
2023-05-18T03:15:52.043Z,100009.78
2023-05-18T03:18:20.152Z,100007.09
2023-05-18T03:20:50.056Z,100016.00
2023-05-18T03:23:18.178Z,100015.19
2023-05-18T03:25:47.602Z,100024.09
2023-05-18T03:28:15.676Z,100023.28
2023-05-18T03:30:45.355Z,100028.69
2023-05-18T03:33:13.422Z,100031.38
2023-05-18T03:35:41.779Z,100028.69
2023-05-18T03:38:09.688Z,100027.81
2023-05-18T03:40:37.764Z,100035.09
2023-05-18T03:43:07.242Z,100040.50
2023-05-18T03:45:35.316Z,100043.19
2023-05-18T03:48:03.413Z,100051.28
2023-05-18T03:50:31.585Z,100055.06
2023-05-18T03:52:59.555Z,100060.47
2023-05-18T03:55:27.674Z,100063.38
2023-05-18T03:57:55.853Z,100073.94
2023-05-18T04:00:25.257Z,100062.53
2023-05-18T04:02:53.442Z,100067.94
2023-05-18T04:05:21.528Z,100077.69
2023-05-18T04:07:50.083Z,100075.22
2023-05-18T04:10:19.723Z,100075.22
2023-05-18T04:12:47.773Z,100074.38
2023-05-18T04:15:15.823Z,100081.88
2023-05-18T04:17:46.112Z,100079.19
2023-05-18T04:20:14.867Z,100088.09
2023-05-18T04:22:46.392Z,100083.72
2023-05-18T04:25:19.463Z,100097.22
2023-05-18T04:27:51.627Z,100102.63
2023-05-18T04:30:22.682Z,100093.72
2023-05-18T04:32:52.223Z,100107.81
2023-05-18T04:35:20.332Z,100102.63
2023-05-18T04:37:48.275Z,100101.81
2023-05-18T04:40:17.521Z,100106.19
2023-05-18T04:42:47.734Z,100106.19
2023-05-18T04:45:17.258Z,100102.63
2023-05-18T04:47:46.820Z,100101.81
2023-05-18T04:50:17.458Z,100105.31
2023-05-18T04:52:48.132Z,100111.78
2023-05-18T04:55:20.181Z,100112.59
2023-05-18T04:57:48.200Z,100118.00
2023-05-18T05:00:17.575Z,100119.88
2023-05-18T05:02:46.030Z,100121.75
2023-05-18T05:05:14.078Z,100121.75
2023-05-18T05:07:43.504Z,100120.09
2023-05-18T05:10:12.011Z,100125.50
2023-05-18T05:12:39.969Z,100130.06
2023-05-18T05:15:11.136Z,100130.06
2023-05-18T05:17:39.236Z,100133.81
2023-05-18T05:20:08.402Z,100127.59
2023-05-18T05:22:36.630Z,100133.00
2023-05-18T05:25:06.872Z,100133.00
2023-05-18T05:27:35.011Z,100141.31
2023-05-18T05:30:03.200Z,100149.19
2023-05-18T05:32:32.242Z,100143.78
2023-05-18T05:35:00.356Z,100139.44
2023-05-18T05:37:32.724Z,100144.81
2023-05-18T05:40:03.490Z,100142.13
2023-05-18T05:42:33.255Z,100147.53
2023-05-18T05:45:01.355Z,100145.88
2023-05-18T05:47:29.437Z,100152.91
2023-05-18T05:49:57.456Z,100150.22
2023-05-18T05:52:28.627Z,100162.91
2023-05-18T05:54:56.630Z,100155.84
2023-05-18T05:57:24.672Z,100156.69
2023-05-18T05:59:54.234Z,100152.09
2023-05-18T06:02:22.416Z,100159.38
2023-05-18T06:04:50.441Z,100151.28
2023-05-18T06:07:18.484Z,100162.06
2023-05-18T06:09:47.140Z,100153.97
2023-05-18T06:12:15.173Z,100155.84
2023-05-18T06:14:46.215Z,100149.59
2023-05-18T06:17:16.672Z,100153.38
2023-05-18T06:19:45.577Z,100161.47
2023-05-18T06:22:13.675Z,100165.81
2023-05-18T06:24:44.090Z,100176.81
2023-05-18T06:27:13.228Z,100173.31
2023-05-18T06:29:41.227Z,100183.28
2023-05-18T06:32:09.380Z,100189.50
2023-05-18T06:34:43.058Z,100187.84
2023-05-18T06:37:14.801Z,100191.38
2023-05-18T06:39:47.227Z,100199.47
2023-05-18T06:42:15.721Z,100194.06
2023-05-18T06:44:47.550Z,100200.31
2023-05-18T06:47:21.556Z,100208.41
2023-05-18T06:49:52.666Z,100197.81
2023-05-18T06:52:24.981Z,100198.63
2023-05-18T06:54:57.735Z,100204.88
2023-05-18T06:57:28.752Z,100197.81
2023-05-18T06:59:58.798Z,100207.56
2023-05-18T07:02:31.373Z,100211.28
2023-05-18T07:05:07.707Z,100209.41
2023-05-18T07:07:38.881Z,100211.28
2023-05-18T07:10:20.791Z,100212.97
2023-05-18T07:12:54.046Z,100217.50
2023-05-18T07:15:29.008Z,100209.41
2023-05-18T07:18:00.442Z,100214.81
2023-05-18T07:20:35.238Z,100216.50
2023-05-18T07:23:07.840Z,100220.22
2023-05-18T07:25:42.812Z,100223.97
2023-05-18T07:28:18.561Z,100215.88
2023-05-18T07:30:50.665Z,100212.56
2023-05-18T07:33:21.714Z,100213.38
2023-05-18T07:35:53.046Z,100209.84
2023-05-18T07:38:21.593Z,100208.84
2023-05-18T07:40:49.608Z,100218.56
2023-05-18T07:43:18.181Z,100214.81
2023-05-18T07:45:46.317Z,100223.75
2023-05-18T07:48:14.320Z,100218.38
2023-05-18T07:50:43.011Z,100220.84
2023-05-18T07:53:12.435Z,100223.53
2023-05-18T07:55:42.958Z,100226.22
2023-05-18T07:58:10.877Z,100233.88
2023-05-18T08:00:38.886Z,100226.84
2023-05-18T08:03:08.459Z,100229.53
2023-05-18T08:05:36.637Z,100239.28
2023-05-18T08:08:07.046Z,100230.97
2023-05-18T08:10:37.318Z,100235.31
2023-05-18T08:13:05.347Z,100240.53
2023-05-18T08:15:34.109Z,100238.84
2023-05-18T08:18:02.217Z,100245.91
2023-05-18T08:20:31.863Z,100242.59
2023-05-18T08:22:59.856Z,100242.16
2023-05-18T08:25:28.782Z,100246.53
2023-05-18T08:27:58.278Z,100249.22
2023-05-18T08:30:26.878Z,100262.28
2023-05-18T08:32:55.431Z,100261.22
2023-05-18T08:35:23.622Z,100269.94
2023-05-18T08:37:52.380Z,100263.94
2023-05-18T08:40:20.335Z,100267.25
2023-05-18T08:42:50.845Z,100265.38
2023-05-18T08:45:26.675Z,100267.03
2023-05-18T08:47:54.699Z,100273.28
2023-05-18T08:50:24.590Z,100266.84
2023-05-18T08:52:57.502Z,100253.97
2023-05-18T08:55:26.475Z,100275.31
2023-05-18T08:57:56.746Z,100270.78
2023-05-18T09:00:27.459Z,100271.59
2023-05-18T09:02:55.516Z,100270.53
2023-05-18T09:05:24.220Z,100270.78
2023-05-18T09:07:53.109Z,100273.25
2023-05-18T09:10:22.299Z,100277.38
2023-05-18T09:12:50.986Z,100279.06
2023-05-18T09:15:19.613Z,100273.66
2023-05-18T09:17:49.013Z,100271.53
2023-05-18T09:20:19.089Z,100271.53
2023-05-18T09:22:49.434Z,100276.94
2023-05-18T09:25:18.541Z,100276.94
2023-05-18T09:27:46.538Z,100268.63
2023-05-18T09:30:14.953Z,100274.03
2023-05-18T09:32:43.731Z,100274.84
2023-05-18T09:35:14.114Z,100280.25
2023-05-18T09:37:43.895Z,100280.25
2023-05-18T09:40:12.538Z,100274.84
2023-05-18T09:42:41.824Z,100274.84
2023-05-18T09:45:18.178Z,100272.16
2023-05-18T09:47:46.350Z,100281.91
2023-05-18T09:50:17.507Z,100272.78
2023-05-18T09:52:46.231Z,100282.75
2023-05-18T09:55:14.324Z,100274.66
2023-05-18T09:57:43.756Z,100290.63
2023-05-18T10:00:12.805Z,100290.63
2023-05-18T10:02:42.313Z,100284.19
2023-05-18T10:05:21.349Z,100286.88
2023-05-18T10:07:50.472Z,100290.16
2023-05-18T10:10:20.929Z,100292.28
2023-05-18T10:12:49.146Z,100288.53
2023-05-18T10:15:18.263Z,100285.81
2023-05-18T10:17:46.383Z,100293.09
2023-05-18T10:20:17.772Z,100288.53
2023-05-18T10:22:47.880Z,100293.94
2023-05-18T10:25:18.557Z,100291.22
2023-05-18T10:27:46.633Z,100300.97
2023-05-18T10:30:14.807Z,100290.16
2023-05-18T10:32:43.714Z,100302.66
2023-05-18T10:35:12.141Z,100294.31
2023-05-18T10:37:42.340Z,100288.91
2023-05-18T10:40:12.499Z,100287.66
2023-05-18T10:42:42.422Z,100293.91
2023-05-18T10:45:12.122Z,100294.72
2023-05-18T10:47:40.733Z,100293.03
2023-05-18T10:50:09.998Z,100296.59
2023-05-18T10:52:38.930Z,100298.25
2023-05-18T10:55:07.963Z,100296.38
2023-05-18T10:57:39.900Z,100287.22
2023-05-18T11:00:09.455Z,100292.63
2023-05-18T11:02:40.661Z,100286.38
2023-05-18T11:05:10.494Z,100289.94
2023-05-18T11:07:38.731Z,100295.34
2023-05-18T11:10:10.735Z,100294.50
2023-05-18T11:12:40.408Z,100302.81
2023-05-18T11:15:10.124Z,100300.94
2023-05-18T11:17:38.187Z,100301.16
2023-05-18T11:20:14.352Z,100301.75
2023-05-18T11:22:52.805Z,100301.75
2023-05-18T11:25:44.509Z,100302.59
2023-05-18T11:28:14.621Z,100299.06
2023-05-18T11:30:51.611Z,100298.03
2023-05-18T11:33:24.386Z,100296.16
2023-05-18T11:36:00.563Z,100305.09
2023-05-18T11:38:50.044Z,100304.03
2023-05-18T11:41:35.357Z,100301.31
2023-05-18T11:44:16.145Z,100300.50
2023-05-18T11:46:57.942Z,100309.66
2023-05-18T11:49:26.934Z,100307.78
2023-05-18T11:51:59.769Z,100306.72
2023-05-18T11:54:27.748Z,100308.41
2023-05-18T11:56:55.993Z,100307.53
2023-05-18T11:59:35.979Z,100305.69
2023-05-18T12:02:04.280Z,100305.69
2023-05-18T12:04:34.370Z,100303.81
2023-05-18T12:07:06.016Z,100310.03
2023-05-18T12:09:34.731Z,100309.22
2023-05-18T12:12:03.688Z,100313.81
2023-05-18T12:14:32.375Z,100317.31
2023-05-18T12:17:01.953Z,100311.09
2023-05-18T12:19:30.124Z,100306.72
2023-05-18T12:21:59.133Z,100307.53
2023-05-18T12:24:27.241Z,100308.41
2023-05-18T12:26:57.017Z,100304.63
2023-05-18T12:29:25.065Z,100304.63
2023-05-18T12:31:53.126Z,100313.81
2023-05-18T12:34:23.548Z,100315.44
2023-05-18T12:36:54.996Z,100313.81
2023-05-18T12:39:24.623Z,100316.50
2023-05-18T12:41:54.366Z,100318.59
2023-05-18T12:44:22.566Z,100315.66
2023-05-18T12:46:51.483Z,100328.94
2023-05-18T12:49:19.927Z,100331.66
2023-05-18T12:51:50.169Z,100336.22
2023-05-18T12:54:18.251Z,100337.88
2023-05-18T12:56:54.095Z,100347.84
2023-05-18T12:59:22.097Z,100333.53
2023-05-18T13:01:50.563Z,100332.72
2023-05-18T13:04:19.356Z,100339.75
2023-05-18T13:06:48.575Z,100342.44
2023-05-18T13:09:18.927Z,100344.09
2023-05-18T13:11:52.013Z,100354.91
2023-05-18T13:14:31.516Z,100355.75
2023-05-18T13:16:59.594Z,100354.91
2023-05-18T13:19:28.913Z,100347.84
2023-05-18T13:21:57.124Z,100353.25
2023-05-18T13:24:27.717Z,100347.84
2023-05-18T13:26:55.740Z,100346.78
2023-05-18T13:29:24.598Z,100345.34
2023-05-18T13:32:03.551Z,100354.31
2023-05-18T13:34:35.760Z,100348.28
2023-05-18T13:37:03.717Z,100348.91
2023-05-18T13:39:33.132Z,100347.03
2023-05-18T13:42:03.777Z,100350.56
2023-05-18T13:44:31.849Z,100354.31
2023-05-18T13:47:05.975Z,100352.44
2023-05-18T13:49:33.954Z,100359.91
2023-05-18T13:52:01.929Z,100354.31
2023-05-18T13:54:31.706Z,100359.09
2023-05-18T13:57:01.081Z,100360.75
2023-05-18T13:59:31.919Z,100351.81
2023-05-18T14:01:59.900Z,100362.41
2023-05-18T14:04:28.910Z,100360.75
2023-05-18T14:06:58.371Z,100358.88
2023-05-18T14:09:28.261Z,100364.88
2023-05-18T14:11:57.145Z,100361.16
2023-05-18T14:14:26.577Z,100368.19
2023-05-18T14:16:55.901Z,100366.13
2023-05-18T14:19:24.034Z,100359.47
2023-05-18T14:21:52.094Z,100364.41
2023-05-18T14:24:20.886Z,100364.81
2023-05-18T14:26:48.826Z,100360.84
2023-05-18T14:29:17.614Z,100363.09
2023-05-18T14:31:47.146Z,100361.00
2023-05-18T14:34:15.179Z,100360.56
2023-05-18T14:36:44.052Z,100356.84
2023-05-18T14:39:12.085Z,100359.09
2023-05-18T14:41:41.956Z,100359.72
2023-05-18T14:44:10.133Z,100363.00
2023-05-18T14:46:38.667Z,100349.28
2023-05-18T14:49:08.946Z,100355.06
2023-05-18T14:51:36.971Z,100356.72
2023-05-18T14:54:07.792Z,100356.31
2023-05-18T14:56:35.824Z,100351.53
2023-05-18T14:59:03.856Z,100351.53
2023-05-18T15:01:32.815Z,100356.50
2023-05-18T15:04:00.991Z,100356.25
2023-05-18T15:06:32.648Z,100359.34
2023-05-18T15:09:02.186Z,100361.63
2023-05-18T15:11:31.895Z,100366.19
2023-05-18T15:13:59.986Z,100352.69
2023-05-18T15:16:27.998Z,100360.56
2023-05-18T15:18:57.497Z,100359.72
2023-05-18T15:21:25.580Z,100359.97
2023-05-18T15:23:55.949Z,100363.72
2023-05-18T15:26:23.984Z,100353.94
2023-05-18T15:28:52.011Z,100356.66
2023-05-18T15:31:20.953Z,100358.53
2023-05-18T15:33:48.927Z,100357.47
2023-05-18T15:36:18.875Z,100356.66
2023-05-18T15:38:46.918Z,100363.72
2023-05-18T15:41:16.318Z,100357.47
2023-05-18T15:43:46.899Z,100357.28
2023-05-18T15:46:14.882Z,100359.13
2023-05-18T15:48:43.741Z,100361.63
2023-05-18T15:51:11.755Z,100356.22
2023-05-18T15:53:40.216Z,100354.56
2023-05-18T15:56:09.693Z,100359.13
2023-05-18T15:58:39.145Z,100353.72
2023-05-18T16:01:08.254Z,100352.91
2023-05-18T16:03:36.333Z,100353.72
2023-05-18T16:06:04.722Z,100359.97
2023-05-18T16:08:33.516Z,100355.59
2023-05-18T16:11:07.165Z,100361.00
2023-05-18T16:13:36.040Z,100362.06
2023-05-18T16:16:06.897Z,100361.25
2023-05-18T16:18:34.835Z,100371.19
2023-05-18T16:21:04.118Z,100370.38
2023-05-18T16:23:32.151Z,100371.19
2023-05-18T16:26:02.505Z,100374.97
2023-05-18T16:28:30.698Z,100376.59
2023-05-18T16:30:58.682Z,100371.16
2023-05-18T16:33:32.924Z,100384.03
2023-05-18T16:36:01.003Z,100381.09
2023-05-18T16:38:30.388Z,100387.31
2023-05-18T16:40:58.487Z,100389.44
2023-05-18T16:43:26.512Z,100380.72
2023-05-18T16:49:08.914Z,100390.28
2023-05-18T16:51:37.947Z,100388.66
2023-05-18T16:54:07.000Z,100389.09
2023-05-18T16:56:35.989Z,100392.81
2023-05-18T16:59:05.059Z,100389.53
2023-05-18T17:01:33.317Z,100387.03
2023-05-18T17:04:02.404Z,100398.06
2023-05-18T17:06:31.850Z,100397.47
2023-05-18T17:09:00.793Z,100398.75
2023-05-18T17:11:29.709Z,100396.22
2023-05-18T17:13:59.903Z,100402.88
2023-05-18T17:16:29.333Z,100405.81
2023-05-18T17:18:57.675Z,100401.44
2023-05-18T17:21:28.244Z,100408.94
2023-05-18T17:23:58.550Z,100410.00
2023-05-18T17:26:30.529Z,100410.44
2023-05-18T17:29:00.628Z,100421.25
2023-05-18T17:31:28.905Z,100417.09
2023-05-18T17:33:56.988Z,100418.97
2023-05-18T17:36:27.179Z,100416.72
2023-05-18T17:38:56.290Z,100415.88
2023-05-18T17:41:27.052Z,100415.28
2023-05-18T17:43:55.118Z,100405.50
2023-05-18T17:46:25.137Z,100395.50
2023-05-18T17:48:53.255Z,100398.22
2023-05-18T17:51:21.966Z,100405.75
2023-05-18T17:53:56.151Z,100400.53
2023-05-18T17:56:27.553Z,100400.53
2023-05-18T17:58:55.597Z,100385.59
2023-05-18T18:01:26.235Z,100384.75
2023-05-18T18:03:54.450Z,100395.56
2023-05-18T18:06:25.107Z,100402.25
2023-05-18T18:08:54.836Z,100404.13
2023-05-18T18:11:26.282Z,100399.97
2023-05-18T18:13:54.304Z,100401.84
2023-05-18T18:16:22.662Z,100402.88
2023-05-18T18:18:52.814Z,100404.75
2023-05-18T18:21:20.993Z,100415.38
2023-05-18T18:23:49.135Z,100418.88
2023-05-18T18:26:18.499Z,100424.91
2023-05-18T18:28:47.964Z,100427.59
2023-05-18T18:31:17.295Z,100418.88
2023-05-18T18:33:50.058Z,100428.00
2023-05-18T18:36:19.059Z,100435.28
2023-05-18T18:38:47.183Z,100454.19
2023-05-18T18:41:17.263Z,100457.13
2023-05-18T18:43:46.772Z,100463.38
2023-05-18T18:46:16.127Z,100464.38
2023-05-18T18:48:45.615Z,100467.94
2023-05-18T18:51:13.614Z,100467.94
2023-05-18T18:53:41.554Z,100464.38
2023-05-18T18:56:16.151Z,100463.56
2023-05-18T18:58:43.828Z,100478.13
2023-05-18T19:01:12.231Z,100477.06
2023-05-18T19:03:42.859Z,100487.06
2023-05-18T19:06:11.519Z,100491.63
2023-05-18T19:08:40.558Z,100489.97
2023-05-18T19:11:17.264Z,100480.22
2023-05-18T19:13:49.163Z,100483.72
2023-05-18T19:16:17.767Z,100482.91
2023-05-18T19:18:53.664Z,100478.56
2023-05-18T19:21:21.702Z,100489.56
2023-05-18T19:23:49.652Z,100494.97
2023-05-18T19:26:18.937Z,100488.75
2023-05-18T19:28:46.867Z,100495.78
2023-05-18T19:31:19.563Z,100492.28
2023-05-18T19:33:49.743Z,100494.16
2023-05-18T19:36:17.786Z,100499.75
2023-05-18T19:38:49.503Z,100497.03
2023-05-18T19:41:17.701Z,100504.31
2023-05-18T19:43:48.166Z,100508.91
2023-05-18T19:46:16.382Z,100507.03
2023-05-18T19:48:44.504Z,100498.09
2023-05-18T19:51:15.785Z,100499.97
2023-05-18T19:53:44.744Z,100507.84
2023-05-18T19:56:15.832Z,100516.19
2023-05-18T19:58:43.860Z,100517.22
2023-05-18T20:01:13.386Z,100519.91
2023-05-18T20:03:43.546Z,100519.91
2023-05-18T20:06:13.050Z,100519.09
2023-05-18T20:08:44.245Z,100525.31
2023-05-18T20:11:14.765Z,100522.00
2023-05-18T20:13:47.322Z,100524.72
2023-05-18T20:16:15.961Z,100525.75
2023-05-18T20:18:45.999Z,100529.50
2023-05-18T20:21:18.689Z,100529.50
2023-05-18T20:23:47.538Z,100533.22
2023-05-18T20:26:18.309Z,100536.16
2023-05-18T20:28:46.235Z,100532.81
2023-05-18T20:31:14.440Z,100544.44
2023-05-18T20:33:45.639Z,100549.03
2023-05-18T20:36:15.268Z,100547.16
2023-05-18T20:38:45.682Z,100544.44
2023-05-18T20:41:13.692Z,100541.13
2023-05-18T20:43:41.737Z,100543.81
2023-05-18T20:46:10.749Z,100549.03
2023-05-18T20:48:38.869Z,100544.44
2023-05-18T20:51:09.763Z,100539.88
2023-05-18T20:53:39.073Z,100546.13
2023-05-18T20:56:07.109Z,100536.97
2023-05-18T20:58:36.604Z,100538.03
2023-05-18T21:01:07.181Z,100536.97
2023-05-18T21:03:37.280Z,100540.72
2023-05-18T21:06:05.674Z,100542.38
2023-05-18T21:08:35.929Z,100535.09
2023-05-18T21:11:13.310Z,100531.56
2023-05-18T21:13:41.455Z,100538.03
2023-05-18T21:16:09.688Z,100545.28
2023-05-18T21:18:38.682Z,100544.44
2023-05-18T21:21:06.685Z,100546.13
2023-05-18T21:23:36.398Z,100539.06
2023-05-18T21:26:04.430Z,100538.22
2023-05-18T21:28:33.969Z,100539.06
2023-05-18T21:31:02.912Z,100544.44
2023-05-18T21:33:31.035Z,100538.22
2023-05-18T21:36:01.101Z,100540.94
2023-05-18T21:38:29.192Z,100543.44
2023-05-18T21:40:57.267Z,100547.16
2023-05-18T21:43:26.302Z,100537.41
2023-05-18T21:45:55.728Z,100537.41
2023-05-18T21:48:24.553Z,100542.81
2023-05-18T21:50:53.030Z,100537.41
2023-05-18T21:53:21.164Z,100543.63
2023-05-18T21:55:49.880Z,100540.94
2023-05-18T21:58:18.200Z,100544.44
2023-05-18T22:00:47.200Z,100539.06
2023-05-18T22:03:16.647Z,100539.06
2023-05-18T22:05:44.814Z,100539.06
2023-05-18T22:08:13.442Z,100549.84
2023-05-18T22:10:42.251Z,100550.91
2023-05-18T22:13:11.319Z,100545.69
2023-05-18T22:15:40.372Z,100546.53
2023-05-18T22:18:08.473Z,100552.34
2023-05-18T22:20:39.649Z,100549.47
2023-05-18T22:23:09.158Z,100546.97
2023-05-18T22:25:37.549Z,100546.97
2023-05-18T22:28:05.666Z,100545.94
2023-05-18T22:30:33.840Z,100547.81
2023-05-18T22:33:02.071Z,100548.84
2023-05-18T22:35:30.165Z,100552.34
2023-05-18T22:37:59.671Z,100547.81
2023-05-18T22:40:27.649Z,100550.72
2023-05-18T22:42:57.296Z,100555.28
2023-05-18T22:45:25.431Z,100552.59
2023-05-18T22:47:53.420Z,100549.06
2023-05-18T22:50:21.688Z,100547.19
2023-05-18T22:52:49.782Z,100545.50
2023-05-18T22:55:20.439Z,100546.56
2023-05-18T22:57:50.058Z,100547.38
2023-05-18T23:00:19.540Z,100541.97
2023-05-18T23:02:49.012Z,100533.88
2023-05-18T23:05:18.381Z,100530.34
2023-05-18T23:07:47.809Z,100530.34
2023-05-18T23:10:17.277Z,100527.84
2023-05-18T23:12:48.423Z,100526.22
2023-05-18T23:15:17.981Z,100529.97
2023-05-18T23:17:47.239Z,100525.59
2023-05-18T23:20:16.426Z,100532.03
2023-05-18T23:22:44.453Z,100532.03
2023-05-18T23:25:13.801Z,100529.53
2023-05-18T23:27:43.377Z,100529.53
2023-05-18T23:30:14.805Z,100526.22
2023-05-18T23:32:45.845Z,100523.72
2023-05-18T23:35:15.203Z,100523.72
2023-05-18T23:37:47.005Z,100532.00
2023-05-18T23:40:15.840Z,100539.09
2023-05-18T23:42:44.375Z,100525.78
2023-05-18T23:45:16.536Z,100527.03
2023-05-18T23:47:46.987Z,100519.97
2023-05-18T23:50:19.669Z,100522.69
2023-05-18T23:52:48.890Z,100517.47
2023-05-18T23:55:21.057Z,100517.47
2023-05-18T23:57:53.385Z,100512.09
